Time;durP1;ratioP1;P1;durP2;ratioP2;P2;SDS_P1;SDS_P2;PMS_P1;PMS_P2;Temp;Humidity;BMP_temperature;BMP_pressure;BME280_temperature;BME280_humidity;BME280_pressure;Samples;Min_cycle;Max_cycle;Signal;HPM_P1;HPM_P2
2020/12/12 00:02:14;;;;;;;59.45;21.65;;;-1.00;99.90;;;;;;5074742;28;20111;-84
2020/12/12 00:04:40;;;;;;;64.40;20.65;;;-1.00;99.90;;;;;;5092590;28;20065;-85
2020/12/12 00:07:05;;;;;;;59.03;21.25;;;-1.10;99.90;;;;;;5074535;28;20020;-85
2020/12/12 00:09:32;;;;;;;61.13;20.90;;;-1.10;99.90;;;;;;5062796;28;20494;-84
2020/12/12 00:11:58;;;;;;;70.88;22.55;;;-1.10;99.90;;;;;;5072612;28;20031;-85
2020/12/12 00:14:24;;;;;;;54.30;20.85;;;-1.20;99.90;;;;;;5072374;28;20033;-86
2020/12/12 00:16:51;;;;;;;85.72;23.88;;;-1.20;99.90;;;;;;5073130;28;20114;-85
2020/12/12 00:19:17;;;;;;;61.67;21.10;;;-1.10;99.90;;;;;;5074214;28;20115;-85
2020/12/12 00:21:42;;;;;;;68.40;22.13;;;-1.10;99.90;;;;;;5054466;28;20457;-85
2020/12/12 00:24:08;;;;;;;59.85;20.08;;;-1.10;99.90;;;;;;5068634;28;20119;-85
2020/12/12 00:26:34;;;;;;;54.08;18.42;;;-1.20;99.90;;;;;;5092768;28;20061;-87
2020/12/12 00:28:59;;;;;;;58.28;20.27;;;-1.20;99.90;;;;;;5092642;28;20030;-87
2020/12/12 00:31:25;;;;;;;65.18;21.52;;;-1.20;99.90;;;;;;5077333;28;20025;-84
2020/12/12 00:33:50;;;;;;;53.85;17.33;;;-1.20;99.90;;;;;;5072241;28;20035;-84
2020/12/12 00:36:16;;;;;;;57.03;19.95;;;-1.20;99.90;;;;;;5088196;28;20021;-84
2020/12/12 00:38:42;;;;;;;63.13;22.52;;;-1.20;99.90;;;;;;5072500;28;20032;-86
2020/12/12 00:41:08;;;;;;;64.25;21.25;;;-1.20;99.90;;;;;;5072352;28;20427;-85
2020/12/12 00:43:34;;;;;;;61.42;23.35;;;-1.20;99.90;;;;;;5072667;28;20021;-85
2020/12/12 00:46:01;;;;;;;59.25;20.33;;;-1.20;99.90;;;;;;5072164;28;20355;-84
2020/12/12 00:48:27;;;;;;;60.78;20.75;;;-1.20;99.90;;;;;;5072572;28;20024;-85
2020/12/12 00:50:52;;;;;;;81.43;23.88;;;-1.20;99.90;;;;;;5072553;28;20415;-85
2020/12/12 00:53:18;;;;;;;70.20;22.90;;;-1.20;99.90;;;;;;5072320;28;20028;-85
2020/12/12 00:55:43;;;;;;;63.30;19.60;;;-1.20;99.90;;;;;;5072222;28;20032;-84
2020/12/12 00:58:09;;;;;;;65.28;20.83;;;-1.20;99.90;;;;;;5072228;28;20355;-84
2020/12/12 01:00:35;;;;;;;77.72;24.23;;;-1.20;99.90;;;;;;5056899;28;20027;-84
2020/12/12 01:03:03;;;;;;;58.28;22.02;;;-1.20;99.90;;;;;;5072293;28;20059;-85
2020/12/12 01:05:31;;;;;;;61.42;22.85;;;-1.30;99.90;;;;;;5072582;28;20113;-85
2020/12/12 01:07:58;;;;;;;61.03;23.17;;;-1.30;99.90;;;;;;5072338;28;20454;-85
2020/12/12 01:10:24;;;;;;;72.25;22.60;;;-1.30;99.90;;;;;;5072151;28;20497;-84
2020/12/12 01:12:51;;;;;;;63.42;21.70;;;-1.30;99.90;;;;;;5072022;28;20028;-84
2020/12/12 01:15:17;;;;;;;65.72;22.58;;;-1.30;99.90;;;;;;5071998;28;20036;-84
2020/12/12 01:17:43;;;;;;;61.78;22.55;;;-1.30;99.90;;;;;;5073726;28;20024;-84
2020/12/12 01:20:09;;;;;;;59.35;22.75;;;-1.30;99.90;;;;;;5075043;28;20030;-83
2020/12/12 01:22:34;;;;;;;73.32;23.27;;;-1.30;99.90;;;;;;5075714;28;20040;-84
2020/12/12 01:25:01;;;;;;;59.85;23.25;;;-1.30;99.90;;;;;;5075825;28;20025;-84
2020/12/12 01:27:26;;;;;;;58.58;22.42;;;-1.30;99.90;;;;;;5091486;28;20032;-85
2020/12/12 01:29:52;;;;;;;66.63;22.45;;;-1.30;99.90;;;;;;5093880;28;20032;-84
2020/12/12 01:32:18;;;;;;;63.92;20.58;;;-1.30;99.90;;;;;;5077659;28;20024;-84
2020/12/12 01:34:43;;;;;;;62.65;21.67;;;-1.40;99.90;;;;;;5095936;28;20032;-85
2020/12/12 01:37:09;;;;;;;56.25;20.63;;;-1.40;99.90;;;;;;5095873;28;20035;-84
2020/12/12 01:39:35;;;;;;;61.72;20.17;;;-1.40;99.90;;;;;;5096506;28;20045;-84
2020/12/12 01:42:00;;;;;;;53.00;20.92;;;-1.40;99.90;;;;;;5096693;28;20031;-85
2020/12/12 01:44:26;;;;;;;59.03;23.92;;;-1.40;99.90;;;;;;5094854;28;20107;-85
2020/12/12 01:46:53;;;;;;;63.22;21.25;;;-1.40;99.90;;;;;;5095561;28;20025;-85
2020/12/12 01:49:19;;;;;;;63.55;22.02;;;-1.40;99.90;;;;;;5095434;28;20020;-85
2020/12/12 01:51:45;;;;;;;54.28;21.35;;;-1.50;99.90;;;;;;5096222;28;20359;-85
2020/12/12 01:54:11;;;;;;;54.38;21.48;;;-1.40;99.90;;;;;;5083603;28;20028;-84
2020/12/12 01:56:37;;;;;;;50.55;17.73;;;-1.50;99.90;;;;;;5095420;28;20034;-86
2020/12/12 01:59:03;;;;;;;50.33;20.92;;;-1.50;99.90;;;;;;5093953;28;20017;-85
2020/12/12 02:01:33;;;;;;;63.30;22.48;;;-1.40;99.90;;;;;;5081767;28;20021;-83
2020/12/12 02:04:00;;;;;;;53.17;20.05;;;-1.40;99.90;;;;;;5074980;28;20020;-85
2020/12/12 02:06:26;;;;;;;56.17;21.23;;;-1.50;99.90;;;;;;5076774;28;20538;-85
2020/12/12 02:08:52;;;;;;;65.07;22.05;;;-1.50;99.90;;;;;;5074532;28;20028;-83
2020/12/12 02:11:21;;;;;;;50.17;19.05;;;-1.50;99.90;;;;;;5074807;28;20382;-85
2020/12/12 02:13:49;;;;;;;55.95;20.27;;;-1.50;99.90;;;;;;5074961;28;20033;-85
2020/12/12 02:16:16;;;;;;;67.60;25.23;;;-1.50;99.90;;;;;;5076041;28;20020;-86
2020/12/12 02:18:42;;;;;;;64.25;23.10;;;-1.50;99.90;;;;;;5074652;28;20024;-86
2020/12/12 02:21:08;;;;;;;56.85;21.02;;;-1.60;99.90;;;;;;5090831;28;20043;-85
2020/12/12 02:23:35;;;;;;;61.78;21.65;;;-1.60;99.90;;;;;;5075790;28;20067;-87
2020/12/12 02:26:01;;;;;;;57.88;20.83;;;-1.60;99.90;;;;;;5090586;28;20024;-85
2020/12/12 02:30:59;;;;;;;56.85;18.33;;;-1.60;99.90;;;;;;5074558;28;20028;-84
2020/12/12 02:33:25;;;;;;;56.22;19.52;;;-1.60;99.90;;;;;;5073420;28;20473;-84
2020/12/12 02:35:50;;;;;;;61.05;21.00;;;-1.60;99.90;;;;;;5074316;28;20032;-82
2020/12/12 02:38:16;;;;;;;64.72;23.20;;;-1.60;99.90;;;;;;5074399;28;20436;-86
2020/12/12 02:40:42;;;;;;;59.88;20.20;;;-1.60;99.90;;;;;;5074420;28;20032;-86
2020/12/12 02:43:14;;;;;;;46.50;18.95;;;-1.70;99.90;;;;;;5074287;28;20032;-86
2020/12/12 02:45:43;;;;;;;44.92;19.45;;;-1.70;99.90;;;;;;5090011;28;20461;-86
2020/12/12 02:48:09;;;;;;;33.30;15.63;;;-1.60;99.90;;;;;;5074145;28;20027;-86
2020/12/12 02:50:35;;;;;;;62.45;18.42;;;-1.70;99.90;;;;;;5074346;28;20020;-86
2020/12/12 02:53:00;;;;;;;50.40;18.95;;;-1.70;99.90;;;;;;5086320;28;20482;-87
2020/12/12 02:55:26;;;;;;;50.38;18.20;;;-1.70;99.90;;;;;;5094177;28;20033;-83
2020/12/12 02:57:52;;;;;;;56.38;21.30;;;-1.70;99.90;;;;;;5093228;28;20024;-86
2020/12/12 03:00:20;;;;;;;56.60;21.27;;;-1.70;99.90;;;;;;5075290;28;20389;-84
2020/12/12 03:02:45;;;;;;;42.00;19.30;;;-1.70;99.90;;;;;;5096665;28;20011;-86
2020/12/12 03:05:11;;;;;;;62.90;24.52;;;-1.60;99.90;;;;;;5094152;28;20107;-85
2020/12/12 03:07:37;;;;;;;64.25;23.35;;;-1.70;99.90;;;;;;5076220;28;20036;-85
2020/12/12 03:10:06;;;;;;;57.15;23.85;;;-1.70;99.90;;;;;;5074836;28;20055;-85
2020/12/12 03:12:37;;;;;;;55.38;22.63;;;-1.70;99.90;;;;;;5073515;28;20090;-86
2020/12/12 03:15:07;;;;;;;43.58;19.00;;;-1.70;99.90;;;;;;5073962;28;20032;-83
2020/12/12 03:17:33;;;;;;;47.78;18.98;;;-1.70;99.90;;;;;;5073440;28;20043;-83
2020/12/12 03:19:59;;;;;;;55.70;23.05;;;-1.80;99.90;;;;;;5089244;28;20466;-83
2020/12/12 03:22:25;;;;;;;48.30;19.60;;;-1.70;99.90;;;;;;5073066;28;20032;-83
2020/12/12 03:24:50;;;;;;;59.17;23.70;;;-1.70;99.90;;;;;;5075103;28;20021;-81
2020/12/12 03:27:16;;;;;;;57.53;23.95;;;-1.80;99.90;;;;;;5074348;28;20021;-86
2020/12/12 03:29:42;;;;;;;61.97;21.83;;;-1.70;99.90;;;;;;5089508;28;20154;-84
2020/12/12 03:32:09;;;;;;;56.10;21.13;;;-1.80;99.90;;;;;;5075248;28;20107;-85
2020/12/12 03:34:38;;;;;;;59.45;24.25;;;-1.80;99.90;;;;;;5073540;28;20090;-85
2020/12/12 03:37:06;;;;;;;68.07;24.55;;;-1.80;99.90;;;;;;5055729;28;20428;-85
2020/12/12 03:39:32;;;;;;;64.40;24.30;;;-1.70;99.90;;;;;;5089359;28;20048;-86
2020/12/12 03:41:57;;;;;;;65.18;24.45;;;-1.70;99.90;;;;;;5075361;28;20082;-86
2020/12/12 03:44:23;;;;;;;52.92;22.88;;;-1.70;99.90;;;;;;5077085;28;20429;-86
2020/12/12 03:46:50;;;;;;;58.63;21.17;;;-1.70;99.90;;;;;;5077572;28;20020;-84
2020/12/12 03:49:16;;;;;;;50.28;19.75;;;-1.70;99.90;;;;;;5081065;28;20046;-84
2020/12/12 03:51:41;;;;;;;53.97;22.15;;;-1.70;99.90;;;;;;5093843;28;20019;-85
2020/12/12 03:54:07;;;;;;;51.53;20.20;;;-1.70;99.90;;;;;;5094413;28;20107;-84
2020/12/12 03:56:33;;;;;;;48.10;19.40;;;-1.70;99.90;;;;;;5075400;28;20063;-85
2020/12/12 03:58:58;;;;;;;50.30;20.55;;;-1.70;99.90;;;;;;5092986;28;20027;-85
2020/12/12 04:01:24;;;;;;;62.15;22.80;;;-1.80;99.90;;;;;;5093249;28;20450;-84
2020/12/12 04:03:50;;;;;;;60.60;22.77;;;-1.70;99.90;;;;;;5075566;28;20061;-85
2020/12/12 04:06:15;;;;;;;54.40;20.55;;;-1.70;99.90;;;;;;5075092;28;20350;-85
2020/12/12 04:08:41;;;;;;;47.45;18.98;;;-1.70;99.90;;;;;;5066595;28;20469;-85
2020/12/12 04:11:07;;;;;;;50.00;21.77;;;-1.70;99.90;;;;;;5072867;28;20029;-85
2020/12/12 04:13:32;;;;;;;47.63;19.10;;;-1.70;99.90;;;;;;5088273;28;20028;-85
2020/12/12 04:15:58;;;;;;;66.82;21.65;;;-1.70;99.90;;;;;;5054474;28;20098;-84
2020/12/12 04:18:24;;;;;;;45.75;18.20;;;-1.70;99.90;;;;;;5073278;28;20072;-85
2020/12/12 04:20:50;;;;;;;57.97;22.13;;;-1.70;99.90;;;;;;5072696;28;20056;-84
2020/12/12 04:23:15;;;;;;;56.47;17.50;;;-1.70;99.90;;;;;;5072657;28;20024;-85
2020/12/12 04:25:41;;;;;;;45.75;18.63;;;-1.70;99.90;;;;;;5073669;28;20032;-85
2020/12/12 04:28:07;;;;;;;54.95;20.20;;;-1.60;99.90;;;;;;5088278;28;20031;-83
2020/12/12 04:30:32;;;;;;;47.08;19.13;;;-1.60;99.90;;;;;;5073489;28;20482;-82
2020/12/12 04:32:58;;;;;;;55.88;19.10;;;-1.60;99.90;;;;;;5088816;28;20501;-83
2020/12/12 04:35:24;;;;;;;53.15;21.98;;;-1.60;99.90;;;;;;5072442;28;20040;-83
2020/12/12 04:37:50;;;;;;;55.13;19.55;;;-1.60;99.90;;;;;;5055686;28;20052;-84
2020/12/12 04:40:16;;;;;;;51.72;18.67;;;-1.50;99.90;;;;;;5087945;28;20401;-83
2020/12/12 04:42:42;;;;;;;49.78;19.70;;;-1.50;99.90;;;;;;5072525;28;20029;-84
2020/12/12 04:45:12;;;;;;;43.50;17.30;;;-1.50;99.90;;;;;;5089130;28;20025;-83
2020/12/12 04:47:44;;;;;;;43.10;17.92;;;-1.50;99.90;;;;;;5092787;28;20027;-84
2020/12/12 04:50:10;;;;;;;46.85;19.77;;;-1.50;99.90;;;;;;5092882;28;20042;-85
2020/12/12 04:52:41;;;;;;;42.92;19.00;;;-1.50;99.90;;;;;;5077438;28;20370;-85
2020/12/12 04:55:07;;;;;;;54.42;20.02;;;-1.60;99.90;;;;;;5079080;28;20024;-84
2020/12/12 04:57:34;;;;;;;51.78;19.65;;;-1.50;99.90;;;;;;5096305;28;20123;-84
2020/12/12 05:00:04;;;;;;;67.85;21.55;;;-1.50;99.90;;;;;;5079825;28;20031;-84
2020/12/12 05:02:32;;;;;;;56.97;19.95;;;-1.60;99.90;;;;;;5091889;28;20017;-83
2020/12/12 05:04:58;;;;;;;57.38;16.83;;;-1.60;99.90;;;;;;5076005;28;20467;-84
2020/12/12 05:07:23;;;;;;;53.85;18.15;;;-1.60;99.90;;;;;;5057965;28;20031;-84
2020/12/12 05:09:49;;;;;;;48.45;20.02;;;-1.60;99.90;;;;;;5075985;28;20017;-84
2020/12/12 05:12:15;;;;;;;45.20;18.77;;;-1.60;99.90;;;;;;5057739;28;20066;-84
2020/12/12 05:14:41;;;;;;;47.20;16.90;;;-1.60;99.90;;;;;;5071644;28;20496;-84
2020/12/12 05:17:08;;;;;;;48.47;18.40;;;-1.70;99.90;;;;;;5096079;28;20027;-84
2020/12/12 05:19:34;;;;;;;52.60;16.83;;;-1.70;99.90;;;;;;5096634;28;20020;-83
2020/12/12 05:22:02;;;;;;;49.78;17.42;;;-1.70;99.90;;;;;;5095938;28;20039;-84
2020/12/12 05:24:29;;;;;;;32.03;14.70;;;-1.70;99.90;;;;;;5096328;28;20031;-84
2020/12/12 05:27:02;;;;;;;46.60;17.50;;;-1.70;99.90;;;;;;5077434;28;20466;-84
2020/12/12 05:29:28;;;;;;;46.83;16.80;;;-1.70;99.90;;;;;;5078039;28;20028;-84
2020/12/12 05:31:57;;;;;;;31.48;13.10;;;-1.70;99.90;;;;;;5095835;28;20024;-84
2020/12/12 05:34:24;;;;;;;45.67;18.02;;;-1.70;99.90;;;;;;5095612;28;20039;-83
2020/12/12 05:36:50;;;;;;;45.85;14.93;;;-1.70;99.90;;;;;;5095615;28;20099;-83
2020/12/12 05:39:16;;;;;;;43.28;16.23;;;-1.70;99.90;;;;;;5076954;28;20106;-83
2020/12/12 05:41:43;;;;;;;58.47;19.58;;;-1.70;99.90;;;;;;5089784;28;20099;-84
2020/12/12 05:44:10;;;;;;;50.95;15.95;;;-1.70;99.90;;;;;;5075389;28;20056;-84
2020/12/12 05:46:37;;;;;;;38.45;16.50;;;-1.70;99.90;;;;;;5075038;28;20426;-84
2020/12/12 05:49:03;;;;;;;36.10;16.08;;;-1.70;99.90;;;;;;5075179;28;20025;-84
2020/12/12 05:51:30;;;;;;;40.35;14.93;;;-1.70;99.90;;;;;;5075095;28;20032;-83
2020/12/12 05:53:57;;;;;;;42.42;16.00;;;-1.80;99.90;;;;;;5090564;28;20462;-84
2020/12/12 05:56:24;;;;;;;35.55;17.13;;;-1.70;99.90;;;;;;5090707;28;20024;-85
2020/12/12 05:58:53;;;;;;;44.40;15.20;;;-1.70;99.90;;;;;;5076254;28;20012;-83
2020/12/12 06:01:25;;;;;;;46.05;17.85;;;-1.70;99.90;;;;;;5090687;28;20474;-84
2020/12/12 06:04:07;;;;;;;;;;;-1.70;99.90;;;;;;5074968;28;20036;-84
2020/12/12 06:06:33;;;;;;;46.28;15.02;;;-1.70;99.90;;;;;;5074929;28;19927;-85
2020/12/12 06:09:07;;;;;;;34.10;16.10;;;-1.70;99.90;;;;;;5074118;28;20025;-84
2020/12/12 06:11:34;;;;;;;49.10;20.27;;;-1.70;99.90;;;;;;5078279;28;20051;-85
2020/12/12 06:14:02;;;;;;;46.15;17.50;;;-1.70;99.90;;;;;;5076963;28;20031;-85
2020/12/12 06:16:30;;;;;;;51.00;20.27;;;-1.80;99.90;;;;;;5094913;28;20046;-84
2020/12/12 06:19:14;;;;;;;48.25;18.15;;;-1.80;99.90;;;;;;5095415;28;20358;-83
2020/12/12 06:21:47;;;;;;;50.42;17.92;;;-1.80;99.90;;;;;;5094915;28;20076;-84
2020/12/12 06:24:17;;;;;;;;;;;-1.70;99.90;;;;;;5077915;28;20385;-86
2020/12/12 06:27:07;;;;;;;40.67;15.63;;;-1.80;99.90;;;;;;5093126;28;19911;-84
2020/12/12 06:29:42;;;;;;;54.00;19.58;;;-1.80;99.90;;;;;;5093692;28;20155;-84
2020/12/12 06:32:16;;;;;;;60.63;22.73;;;-1.70;99.90;;;;;;5076352;28;20020;-84
2020/12/12 06:34:51;;;;;;;58.15;20.25;;;-1.70;99.90;;;;;;5076441;28;20047;-84
2020/12/12 06:37:30;;;;;;;64.10;23.52;;;-1.70;99.90;;;;;;5094799;28;20473;-83
2020/12/12 06:39:57;;;;;;;49.15;19.83;;;-1.70;99.90;;;;;;5076534;28;20385;-84
2020/12/12 06:42:37;;;;;;;53.20;19.40;;;-1.70;99.90;;;;;;5075826;28;20123;-83
2020/12/12 06:45:25;;;;;;;56.50;23.85;;;-1.60;99.90;;;;;;5073417;28;20059;-84
2020/12/12 06:47:53;;;;;;;62.38;20.13;;;-1.60;99.90;;;;;;5076584;28;20475;-83
2020/12/12 06:50:36;;;;;;;61.63;21.98;;;-1.60;99.90;;;;;;5068107;28;20526;-83
2020/12/12 06:53:19;;;;;;;57.72;22.88;;;-1.60;99.90;;;;;;5074570;28;20020;-85
2020/12/12 06:56:05;;;;;;;63.83;22.77;;;-1.60;99.90;;;;;;5058180;28;20032;-83
2020/12/12 06:58:32;;;;;;;61.83;22.08;;;-1.60;99.90;;;;;;5074200;28;20044;-83
2020/12/12 07:00:58;;;;;;;58.70;22.10;;;-1.60;99.90;;;;;;5055835;28;20483;-83
2020/12/12 07:03:24;;;;;;;62.28;23.65;;;-1.60;99.90;;;;;;5056578;28;20117;-84
2020/12/12 07:05:50;;;;;;;63.33;22.85;;;-1.60;99.90;;;;;;5055919;28;20025;-83
2020/12/12 07:08:16;;;;;;;63.97;22.27;;;-1.60;99.90;;;;;;5073139;28;20017;-84
2020/12/12 07:10:43;;;;;;;65.05;23.70;;;-1.50;99.90;;;;;;5089484;28;20171;-83
2020/12/12 07:13:11;;;;;;;62.78;21.15;;;-1.50;99.90;;;;;;5055522;28;20028;-83
2020/12/12 07:15:37;;;;;;;61.28;21.10;;;-1.50;99.90;;;;;;5087650;28;20043;-83
2020/12/12 07:18:13;;;;;;;70.32;25.35;;;-1.50;99.90;;;;;;5055363;28;20051;-83
2020/12/12 07:20:49;;;;;;;65.43;22.65;;;-1.50;99.90;;;;;;5072459;28;20021;-84
2020/12/12 07:23:18;;;;;;;51.70;19.85;;;-1.40;99.90;;;;;;5093336;28;20389;-83
2020/12/12 07:25:45;;;;;;;57.17;23.60;;;-1.40;99.90;;;;;;5075439;28;20485;-83
2020/12/12 07:28:11;;;;;;;55.97;21.52;;;-1.40;99.90;;;;;;5075476;28;20024;-84
2020/12/12 07:30:39;;;;;;;67.65;22.90;;;-1.40;99.90;;;;;;5074898;28;20020;-83
2020/12/12 07:33:04;;;;;;;65.63;23.48;;;-1.40;99.90;;;;;;5074504;28;20073;-84
2020/12/12 07:35:30;;;;;;;72.63;26.15;;;-1.30;99.90;;;;;;5093381;28;20040;-83
2020/12/12 07:38:04;;;;;;;62.83;24.90;;;-1.30;99.90;;;;;;5075179;28;20044;-85
2020/12/12 07:40:35;;;;;;;68.90;24.45;;;-1.20;99.90;;;;;;5075082;28;20016;-83
2020/12/12 07:43:10;;;;;;;70.75;27.02;;;-1.20;99.90;;;;;;5093316;28;20036;-83
2020/12/12 07:48:05;;;;;;;54.60;20.42;;;-1.20;99.90;;;;;;5087785;28;20381;-83
2020/12/12 07:50:31;;;;;;;59.05;19.15;;;-1.20;99.90;;;;;;5091766;28;20020;-84
2020/12/12 07:53:07;;;;;;;50.25;17.55;;;-1.20;99.90;;;;;;5073433;28;20512;-84
2020/12/12 07:55:33;;;;;;;95.15;31.20;;;-1.30;99.90;;;;;;5072239;28;20492;-83
2020/12/12 07:57:59;;;;;;;56.50;21.38;;;-1.20;99.90;;;;;;5076602;28;20016;-83
2020/12/12 08:00:25;;;;;;;183.30;59.88;;;-1.20;99.90;;;;;;5060571;28;20367;-83
2020/12/12 08:02:58;;;;;;;102.18;37.22;;;-1.20;99.90;;;;;;5102263;28;20016;-82
2020/12/12 08:05:24;;;;;;;90.82;33.85;;;-1.20;99.90;;;;;;5093778;28;20028;-82
2020/12/12 08:07:51;;;;;;;114.57;47.40;;;-1.20;99.90;;;;;;5065611;28;20028;-82
2020/12/12 08:10:17;;;;;;;141.07;53.00;;;-1.10;99.90;;;;;;5087313;28;20107;-83
2020/12/12 08:12:43;;;;;;;69.38;32.13;;;-1.10;99.90;;;;;;5091539;28;20099;-82
2020/12/12 08:15:26;;;;;;;75.50;28.98;;;-1.10;99.90;;;;;;5074316;28;20043;-83
2020/12/12 08:17:52;;;;;;;77.32;35.20;;;-1.00;99.90;;;;;;5073541;28;20024;-83
2020/12/12 08:20:28;;;;;;;118.25;54.22;;;-1.00;99.90;;;;;;5073555;28;20028;-82
2020/12/12 08:22:54;;;;;;;95.13;40.60;;;-1.00;99.90;;;;;;5059310;28;20040;-83
2020/12/12 08:25:20;;;;;;;70.60;26.42;;;-0.90;99.90;;;;;;5087831;28;20031;-83
2020/12/12 08:27:46;;;;;;;56.05;24.98;;;-0.90;99.90;;;;;;5070932;28;20099;-84
2020/12/12 08:30:12;;;;;;;86.22;37.03;;;-0.90;99.90;;;;;;5070738;28;20074;-83
2020/12/12 08:32:40;;;;;;;69.72;32.33;;;-0.80;99.90;;;;;;5086449;28;20025;-84
2020/12/12 08:35:12;;;;;;;75.15;26.38;;;-0.80;99.90;;;;;;5096792;28;20503;-84
2020/12/12 08:37:49;;;;;;;91.35;39.45;;;-0.80;99.90;;;;;;5090672;28;20373;-83
2020/12/12 08:40:14;;;;;;;92.05;37.10;;;-0.80;99.90;;;;;;5087083;28;20024;-83
2020/12/12 08:42:40;;;;;;;94.25;36.65;;;-0.80;99.90;;;;;;5072128;28;20123;-84
2020/12/12 08:45:16;;;;;;;94.90;35.33;;;-0.70;99.90;;;;;;5073278;28;20020;-82
2020/12/12 08:47:42;;;;;;;72.97;30.50;;;-0.60;99.90;;;;;;5074026;28;20020;-83
2020/12/12 08:50:08;;;;;;;95.10;35.63;;;-0.60;99.90;;;;;;5092430;28;20500;-83
2020/12/12 08:52:34;;;;;;;80.88;27.35;;;-0.70;99.90;;;;;;5080406;28;20032;-82
2020/12/12 08:55:01;;;;;;;64.35;27.65;;;-0.70;99.90;;;;;;5071232;28;20033;-83
2020/12/12 08:57:27;;;;;;;107.03;40.13;;;-0.80;99.90;;;;;;5054578;28;20458;-83
2020/12/12 09:00:04;;;;;;;88.30;30.48;;;-0.70;99.90;;;;;;5074151;28;20027;-83
2020/12/12 09:02:30;;;;;;;138.27;49.15;;;-0.70;99.90;;;;;;5092425;28;20488;-82
2020/12/12 09:05:07;;;;;;;232.70;76.38;;;-0.70;99.90;;;;;;5074199;28;20023;-84
2020/12/12 09:07:32;;;;;;;86.68;29.15;;;-0.70;99.90;;;;;;5074079;28;20111;-82
2020/12/12 09:10:12;;;;;;;66.53;22.67;;;-0.80;99.90;;;;;;5074298;28;20141;-82
2020/12/12 09:12:47;;;;;;;63.25;19.92;;;-0.80;99.90;;;;;;5070086;28;20035;-82
2020/12/12 09:15:13;;;;;;;71.97;24.30;;;-0.80;99.90;;;;;;5087130;28;20083;-82
2020/12/12 09:17:40;;;;;;;79.70;23.30;;;-0.80;99.90;;;;;;5069053;28;20016;-82
2020/12/12 09:20:07;;;;;;;47.53;19.60;;;-0.70;99.90;;;;;;5087433;28;20035;-83
2020/12/12 09:22:33;;;;;;;67.57;24.10;;;-0.70;99.90;;;;;;5069143;28;20410;-83
2020/12/12 09:24:59;;;;;;;60.10;23.27;;;-0.70;99.90;;;;;;5067754;28;20055;-84
2020/12/12 09:27:25;;;;;;;62.45;21.65;;;-0.70;99.90;;;;;;5073130;28;20538;-85
2020/12/12 09:29:51;;;;;;;93.00;31.40;;;-0.70;99.90;;;;;;5072635;28;20039;-83
2020/12/12 09:32:17;;;;;;;89.32;31.20;;;-0.70;99.90;;;;;;5072889;28;20107;-84
2020/12/12 09:34:42;;;;;;;50.58;20.15;;;-0.60;99.90;;;;;;5074069;28;20139;-84
2020/12/12 09:37:08;;;;;;;73.63;24.45;;;-0.60;99.90;;;;;;5091864;28;20081;-83
2020/12/12 09:39:34;;;;;;;71.82;24.05;;;-0.60;99.90;;;;;;5076854;28;20028;-83
2020/12/12 09:42:00;;;;;;;50.63;18.40;;;-0.60;99.90;;;;;;5077554;28;20016;-84
2020/12/12 09:44:27;;;;;;;51.50;18.63;;;-0.50;99.90;;;;;;5082055;28;20043;-83
2020/12/12 09:46:53;;;;;;;57.30;20.88;;;-0.50;99.90;;;;;;5057420;28;20070;-82
2020/12/12 09:49:19;;;;;;;50.40;16.65;;;-0.50;99.90;;;;;;5057416;28;20477;-83
2020/12/12 09:51:46;;;;;;;55.45;21.20;;;-0.40;99.90;;;;;;5086755;28;20103;-82
2020/12/12 09:54:12;;;;;;;72.45;26.77;;;-0.40;99.90;;;;;;5090237;28;20020;-82
2020/12/12 09:56:38;;;;;;;76.05;27.52;;;-0.30;99.90;;;;;;5094157;28;20030;-83
2020/12/12 09:59:04;;;;;;;86.93;35.75;;;-0.30;99.90;;;;;;5093567;28;20385;-82
2020/12/12 10:01:30;;;;;;;78.97;30.20;;;-0.30;99.90;;;;;;5094090;28;20416;-82
2020/12/12 10:03:56;;;;;;;75.13;24.08;;;-0.30;99.90;;;;;;5089820;28;20082;-82
2020/12/12 10:06:21;;;;;;;72.63;22.65;;;-0.30;99.90;;;;;;5075680;28;20028;-82
2020/12/12 10:08:47;;;;;;;59.13;22.05;;;-0.30;99.90;;;;;;5074839;28;20047;-82
2020/12/12 10:11:13;;;;;;;45.75;17.48;;;-0.30;99.90;;;;;;5074876;28;20012;-83
2020/12/12 10:13:39;;;;;;;55.38;20.48;;;-0.40;99.90;;;;;;5073623;28;20115;-83
2020/12/12 10:16:04;;;;;;;38.45;16.20;;;-0.40;99.90;;;;;;5093757;28;20439;-82
2020/12/12 10:18:30;;;;;;;101.32;39.72;;;-0.40;99.90;;;;;;5094332;28;20405;-83
2020/12/12 10:20:56;;;;;;;110.75;38.78;;;-0.40;99.90;;;;;;5075998;28;20024;-82
2020/12/12 10:23:22;;;;;;;108.47;38.25;;;-0.30;99.90;;;;;;5075762;28;20024;-83
2020/12/12 10:25:47;;;;;;;107.35;40.63;;;-0.20;99.90;;;;;;5076534;28;20024;-83
2020/12/12 10:28:13;;;;;;;85.57;32.25;;;-0.20;99.90;;;;;;5093633;28;20050;-82
2020/12/12 10:30:39;;;;;;;80.80;28.98;;;-0.10;99.90;;;;;;5094824;28;20024;-83
2020/12/12 10:33:07;;;;;;;52.00;19.85;;;-0.10;99.90;;;;;;5094811;28;20024;-83
2020/12/12 10:35:33;;;;;;;54.47;20.27;;;0.00;99.90;;;;;;5094931;28;20035;-83
2020/12/12 10:37:59;;;;;;;57.58;20.27;;;-0.10;99.90;;;;;;5094616;28;20016;-83
2020/12/12 10:40:47;;;;;;;47.78;20.65;;;0.00;99.90;;;;;;5076385;28;20387;-83
2020/12/12 10:43:13;;;;;;;66.95;22.73;;;0.00;99.90;;;;;;5068745;28;20025;-84
2020/12/12 10:45:41;;;;;;;64.50;22.83;;;0.10;99.90;;;;;;5074449;28;20478;-83
2020/12/12 10:48:07;;;;;;;73.22;25.92;;;0.10;99.90;;;;;;5073942;28;20470;-83
2020/12/12 10:50:33;;;;;;;59.35;21.95;;;0.20;99.90;;;;;;5073661;28;20020;-82
2020/12/12 10:52:58;;;;;;;52.08;19.70;;;0.30;99.90;;;;;;5074277;28;20023;-83
2020/12/12 10:55:25;;;;;;;46.63;20.73;;;0.20;99.90;;;;;;5070965;28;20410;-83
2020/12/12 10:57:50;;;;;;;52.83;20.77;;;0.20;99.90;;;;;;5085657;28;20413;-83
2020/12/12 11:00:25;;;;;;;52.05;18.48;;;0.20;99.90;;;;;;5036338;28;20036;-81
2020/12/12 11:02:51;;;;;;;44.53;17.73;;;0.10;99.90;;;;;;5088190;28;20036;-83
2020/12/12 11:05:17;;;;;;;48.85;18.42;;;0.00;99.90;;;;;;5086113;28;20453;-82
2020/12/12 11:07:43;;;;;;;57.10;19.75;;;0.00;99.90;;;;;;5052744;28;20028;-82
2020/12/12 11:10:08;;;;;;;65.80;22.40;;;0.00;99.90;;;;;;5085906;28;20016;-82
2020/12/12 11:12:34;;;;;;;85.43;26.52;;;0.00;99.90;;;;;;5070328;28;20475;-82
2020/12/12 11:15:00;;;;;;;70.55;26.45;;;0.00;99.90;;;;;;5070205;28;20049;-81
2020/12/12 11:17:25;;;;;;;60.88;24.02;;;0.10;99.90;;;;;;5070189;28;20016;-81
2020/12/12 11:19:51;;;;;;;67.22;25.27;;;0.10;99.90;;;;;;5070147;28;20386;-81
2020/12/12 11:22:17;;;;;;;67.10;23.13;;;0.10;99.90;;;;;;5070347;28;20025;-83
2020/12/12 11:24:42;;;;;;;46.35;19.00;;;0.10;99.90;;;;;;5070103;28;20497;-83
2020/12/12 11:27:08;;;;;;;58.20;21.65;;;0.10;99.90;;;;;;5069447;28;20031;-82
2020/12/12 11:29:33;;;;;;;51.40;18.60;;;0.10;99.90;;;;;;5069779;28;20021;-81
2020/12/12 11:32:00;;;;;;;52.03;19.98;;;0.10;99.90;;;;;;5069585;28;20024;-83
2020/12/12 11:34:31;;;;;;;57.28;22.67;;;0.10;99.90;;;;;;5056110;28;20024;-83
2020/12/12 11:39:56;;;;;;;60.47;22.63;;;0.00;99.90;;;;;;5064437;28;20036;-82
2020/12/12 11:47:32;;;;;;;68.53;23.50;;;0.10;99.90;;;;;;5086046;28;20136;-83
2020/12/12 11:49:58;;;;;;;50.08;21.20;;;0.20;99.90;;;;;;5070359;28;20028;-82
2020/12/12 11:52:23;;;;;;;55.85;22.00;;;0.20;99.90;;;;;;5064621;28;20374;-83
2020/12/12 11:54:49;;;;;;;48.30;19.35;;;0.20;99.90;;;;;;5085521;28;20489;-82
2020/12/12 11:57:15;;;;;;;43.15;20.02;;;0.20;99.90;;;;;;5087357;28;20024;-83
2020/12/12 11:59:43;;;;;;;48.47;16.42;;;0.10;99.90;;;;;;5073217;28;20027;-83
2020/12/12 12:02:09;;;;;;;45.25;18.52;;;0.10;99.90;;;;;;5090721;28;20035;-83
2020/12/12 12:04:34;;;;;;;55.85;20.63;;;0.10;99.90;;;;;;5073167;28;20019;-83
2020/12/12 12:07:04;;;;;;;55.33;21.58;;;0.10;99.90;;;;;;5072846;28;20148;-83
2020/12/12 12:12:02;;;;;;;66.90;23.70;;;0.10;99.90;;;;;;5086631;28;20043;-83
2020/12/12 12:14:28;;;;;;;52.58;20.13;;;0.00;99.90;;;;;;5086872;28;20497;-82
2020/12/12 12:16:54;;;;;;;54.33;22.17;;;0.00;99.90;;;;;;5071470;28;20058;-82
2020/12/12 12:19:19;;;;;;;46.22;15.75;;;0.00;99.90;;;;;;5088616;28;20050;-82
2020/12/12 12:21:49;;;;;;;48.78;20.02;;;0.00;99.90;;;;;;5072075;28;20110;-83
2020/12/12 12:24:17;;;;;;;49.97;19.45;;;0.00;99.90;;;;;;5071666;28;20024;-83
2020/12/12 12:26:43;;;;;;;66.65;22.77;;;0.10;99.90;;;;;;5089727;28;20045;-83
2020/12/12 12:29:12;;;;;;;49.83;20.35;;;0.10;99.90;;;;;;5071821;28;20365;-83
2020/12/12 12:31:42;;;;;;;58.35;21.70;;;0.20;99.90;;;;;;5073937;28;20115;-84
2020/12/12 12:34:08;;;;;;;54.30;22.13;;;0.10;99.90;;;;;;5091653;28;20077;-85
2020/12/12 12:36:34;;;;;;;66.80;23.40;;;0.10;99.90;;;;;;5091732;28;20027;-83
2020/12/12 12:39:01;;;;;;;63.67;24.70;;;0.10;99.90;;;;;;5091507;28;20026;-83
2020/12/12 12:41:28;;;;;;;60.97;24.35;;;0.10;99.90;;;;;;5080230;28;20064;-83
2020/12/12 12:44:00;;;;;;;57.60;21.05;;;0.20;99.90;;;;;;5070676;28;20017;-83
2020/12/12 12:46:28;;;;;;;53.70;20.85;;;0.20;99.90;;;;;;5084015;28;20062;-83